createdAt,value
2022-12-31T00:00:22.849Z,44.69
2022-12-31T00:02:56.139Z,44.81
2022-12-31T00:05:23.376Z,44.68
2022-12-31T00:07:56.637Z,44.72
2022-12-31T00:10:26.495Z,44.72
2022-12-31T00:12:57.995Z,44.69
2022-12-31T00:15:24.930Z,44.69
2022-12-31T00:17:57.467Z,44.65
2022-12-31T00:20:30.876Z,44.68
2022-12-31T00:23:02.712Z,44.70
2022-12-31T00:25:29.556Z,44.65
2022-12-31T00:28:05.506Z,44.60
2022-12-31T00:30:32.674Z,44.72
2022-12-31T00:33:03.050Z,44.66
2022-12-31T00:35:43.016Z,44.66
2022-12-31T00:38:10.033Z,44.62
2022-12-31T00:40:39.422Z,44.66
2022-12-31T00:43:16.599Z,44.70
2022-12-31T00:45:46.683Z,44.68
2022-12-31T00:48:13.554Z,44.63
2022-12-31T00:50:46.663Z,44.75
2022-12-31T00:53:17.107Z,44.85
2022-12-31T00:55:46.877Z,44.67
2022-12-31T00:58:17.206Z,44.62
2022-12-31T01:00:47.256Z,44.70
2022-12-31T01:03:17.473Z,44.68
2022-12-31T01:05:53.461Z,44.68
2022-12-31T01:08:25.449Z,44.73
2022-12-31T01:10:58.305Z,44.67
2022-12-31T01:13:25.097Z,44.71
2022-12-31T01:15:54.822Z,44.73
2022-12-31T01:18:28.292Z,44.75
2022-12-31T01:21:02.220Z,44.76
2022-12-31T01:23:32.872Z,44.84
2022-12-31T01:26:09.005Z,44.67
2022-12-31T01:28:37.352Z,44.77
2022-12-31T01:31:19.777Z,44.68
2022-12-31T01:33:53.064Z,44.72
2022-12-31T01:36:26.597Z,44.75
2022-12-31T01:39:00.145Z,44.71
2022-12-31T01:41:37.703Z,44.81
2022-12-31T01:44:13.586Z,44.80
2022-12-31T01:47:02.830Z,44.86
2022-12-31T01:49:44.944Z,44.85
2022-12-31T01:52:20.859Z,44.84
2022-12-31T01:54:54.411Z,44.99
2022-12-31T01:57:26.427Z,44.91
2022-12-31T01:59:59.195Z,44.97
2022-12-31T02:02:28.836Z,45.08
2022-12-31T02:05:02.988Z,45.05
2022-12-31T02:07:32.929Z,45.14
2022-12-31T02:10:02.754Z,45.12
2022-12-31T02:12:29.770Z,45.24
2022-12-31T02:15:00.166Z,45.17
2022-12-31T02:17:43.291Z,45.22
2022-12-31T02:20:39.786Z,45.30
2022-12-31T02:23:34.936Z,45.29
2022-12-31T02:26:19.176Z,45.33
2022-12-31T02:29:27.827Z,45.28
2022-12-31T02:32:07.933Z,45.34
2022-12-31T02:34:42.096Z,45.23
2022-12-31T02:37:23.772Z,45.24
2022-12-31T02:39:52.153Z,45.19
2022-12-31T02:42:22.261Z,45.20
2022-12-31T02:44:51.946Z,45.21
2022-12-31T02:48:09.467Z,45.18
2022-12-31T02:50:48.475Z,45.35
2022-12-31T02:53:30.614Z,45.22
2022-12-31T02:56:14.421Z,45.28
2022-12-31T02:59:03.480Z,45.30
2022-12-31T03:01:44.320Z,45.40
2022-12-31T03:04:13.733Z,45.37
2022-12-31T03:06:47.617Z,45.37
2022-12-31T03:09:23.784Z,45.33
2022-12-31T03:11:50.892Z,45.39
2022-12-31T03:14:21.551Z,45.50
2022-12-31T03:16:51.449Z,45.47
2022-12-31T03:19:20.902Z,45.47
2022-12-31T03:21:50.323Z,45.46
2022-12-31T03:24:28.469Z,45.48
2022-12-31T03:26:58.073Z,45.44
2022-12-31T03:29:25.834Z,45.43
2022-12-31T03:31:53.060Z,45.43
2022-12-31T03:34:23.326Z,45.47
2022-12-31T03:36:56.379Z,45.49
2022-12-31T03:39:23.132Z,45.54
2022-12-31T03:41:52.939Z,45.52
2022-12-31T03:44:25.401Z,45.52
2022-12-31T03:46:59.600Z,45.57
2022-12-31T03:49:26.552Z,45.59
2022-12-31T03:51:56.879Z,45.58
2022-12-31T03:54:26.818Z,45.61
2022-12-31T03:56:59.904Z,45.60
2022-12-31T03:59:31.171Z,45.66
2022-12-31T04:01:58.287Z,45.65
2022-12-31T04:04:30.620Z,45.59
2022-12-31T04:07:01.162Z,45.58
2022-12-31T04:09:34.296Z,45.54
2022-12-31T04:12:03.627Z,45.52
2022-12-31T04:14:34.010Z,45.68
2022-12-31T04:17:09.415Z,45.63
2022-12-31T04:19:41.763Z,45.72
2022-12-31T04:22:08.796Z,45.71
2022-12-31T04:24:41.342Z,45.73
2022-12-31T04:27:08.770Z,45.72
2022-12-31T04:29:39.912Z,45.69
2022-12-31T04:32:08.717Z,45.70
2022-12-31T04:34:36.125Z,45.69
2022-12-31T04:37:06.792Z,45.66
2022-12-31T04:39:36.427Z,45.61
2022-12-31T04:42:09.634Z,45.63
2022-12-31T04:44:37.757Z,45.68
2022-12-31T04:47:05.165Z,45.61
2022-12-31T04:49:37.993Z,45.68
2022-12-31T04:52:05.137Z,45.66
2022-12-31T04:54:34.859Z,45.68
2022-12-31T04:57:08.972Z,45.61
2022-12-31T04:59:36.436Z,45.61
2022-12-31T05:02:10.415Z,45.66
2022-12-31T05:04:40.695Z,45.65
2022-12-31T05:07:14.331Z,45.75
2022-12-31T05:09:44.710Z,45.75
2022-12-31T05:12:16.185Z,45.71
2022-12-31T05:14:45.738Z,45.68
2022-12-31T05:17:17.453Z,45.75
2022-12-31T05:19:45.202Z,45.83
2022-12-31T05:22:21.198Z,45.81
2022-12-31T05:24:50.579Z,45.85
2022-12-31T05:27:19.983Z,45.74
2022-12-31T05:29:49.577Z,44.72
2022-12-31T05:32:18.539Z,43.94
2022-12-31T05:34:51.583Z,43.46
2022-12-31T05:37:21.552Z,43.27
2022-12-31T05:39:54.514Z,43.03
2022-12-31T05:42:24.370Z,43.10
2022-12-31T05:44:51.127Z,43.00
2022-12-31T05:47:21.410Z,42.87
2022-12-31T05:49:48.740Z,44.04
2022-12-31T05:52:25.213Z,44.51
2022-12-31T05:54:52.501Z,44.98
2022-12-31T05:57:30.916Z,45.05
2022-12-31T06:00:04.643Z,45.08
2022-12-31T06:02:37.408Z,45.23
2022-12-31T06:05:07.795Z,45.27
2022-12-31T06:07:37.926Z,45.35
2022-12-31T06:10:08.808Z,45.45
2022-12-31T06:12:39.165Z,45.63
2022-12-31T06:15:09.429Z,45.68
2022-12-31T06:17:39.336Z,45.57
2022-12-31T06:20:13.322Z,45.51
2022-12-31T06:22:46.998Z,45.38
2022-12-31T06:25:20.590Z,45.36
2022-12-31T06:27:53.058Z,45.30
2022-12-31T06:30:24.908Z,45.11
2022-12-31T06:32:56.425Z,45.01
2022-12-31T06:35:23.761Z,45.07
2022-12-31T06:37:54.725Z,45.12
2022-12-31T06:40:26.803Z,45.15
2022-12-31T06:42:59.927Z,45.17
2022-12-31T06:45:30.774Z,45.16
2022-12-31T06:48:03.725Z,44.78
2022-12-31T06:50:36.948Z,44.42
2022-12-31T06:53:06.992Z,46.29
2022-12-31T06:55:34.219Z,46.87
2022-12-31T06:58:02.180Z,46.84
2022-12-31T07:00:32.509Z,47.02
2022-12-31T07:03:33.466Z,46.92
2022-12-31T07:06:14.996Z,46.50
2022-12-31T07:09:14.742Z,46.33
2022-12-31T07:12:00.791Z,45.84
2022-12-31T07:14:33.825Z,45.86
2022-12-31T07:17:00.562Z,45.60
2022-12-31T07:19:45.515Z,45.44
2022-12-31T07:22:17.523Z,45.27
2022-12-31T07:24:44.958Z,45.10
2022-12-31T07:27:30.271Z,44.97
2022-12-31T07:30:26.045Z,44.98
2022-12-31T07:33:07.609Z,42.23
2022-12-31T07:36:13.008Z,42.97
2022-12-31T07:39:41.161Z,45.76
2022-12-31T07:42:26.767Z,45.85
2022-12-31T07:45:08.826Z,46.11
2022-12-31T07:47:39.293Z,46.27
2022-12-31T07:50:17.704Z,46.44
2022-12-31T07:52:48.642Z,46.43
2022-12-31T07:55:18.979Z,46.45
2022-12-31T07:58:06.856Z,46.59
2022-12-31T08:00:34.447Z,46.66
2022-12-31T08:03:39.870Z,46.96
2022-12-31T08:06:27.561Z,46.75
2022-12-31T08:09:53.444Z,46.54
2022-12-31T08:12:27.915Z,46.53
2022-12-31T08:14:55.747Z,46.44
2022-12-31T08:17:29.031Z,46.53
2022-12-31T08:20:04.700Z,46.48
2022-12-31T08:23:06.384Z,46.46
2022-12-31T08:26:01.702Z,46.29
2022-12-31T08:28:46.495Z,46.06
2022-12-31T08:31:54.577Z,46.15
2022-12-31T08:34:51.222Z,46.02
2022-12-31T08:37:34.600Z,46.13
2022-12-31T08:40:16.497Z,46.37
2022-12-31T08:42:49.758Z,46.59
2022-12-31T08:45:38.578Z,46.49
2022-12-31T08:48:22.102Z,46.50
2022-12-31T08:50:52.714Z,45.95
2022-12-31T08:53:23.864Z,45.60
2022-12-31T08:56:02.167Z,45.61
2022-12-31T08:58:50.793Z,45.48
2022-12-31T09:01:23.512Z,45.34
2022-12-31T09:04:22.822Z,45.17
2022-12-31T09:06:59.460Z,45.13
2022-12-31T09:10:07.630Z,45.16
2022-12-31T09:13:03.545Z,45.12
2022-12-31T09:15:41.069Z,44.94
2022-12-31T09:18:12.659Z,45.28
2022-12-31T09:20:44.421Z,45.31
2022-12-31T09:23:18.046Z,45.38
2022-12-31T09:26:04.723Z,45.17
2022-12-31T09:28:44.782Z,45.26
2022-12-31T09:31:16.031Z,45.45
2022-12-31T09:33:59.277Z,45.68
2022-12-31T09:36:28.884Z,45.03
2022-12-31T09:39:36.810Z,44.19
2022-12-31T09:42:03.753Z,44.15
2022-12-31T09:45:30.863Z,44.12
2022-12-31T09:48:19.477Z,44.22
2022-12-31T09:51:28.072Z,44.13
2022-12-31T09:54:33.858Z,44.19
2022-12-31T09:57:34.418Z,44.22
2022-12-31T10:00:47.193Z,44.56
2022-12-31T10:04:05.594Z,44.96
2022-12-31T10:07:01.538Z,45.13
2022-12-31T10:10:06.665Z,45.50
2022-12-31T10:12:55.066Z,45.23
2022-12-31T10:15:33.804Z,45.39
2022-12-31T10:18:31.113Z,45.96
2022-12-31T10:21:36.234Z,45.58
2022-12-31T10:24:22.009Z,46.26
2022-12-31T10:27:29.998Z,46.39
2022-12-31T10:30:21.477Z,46.23
2022-12-31T10:33:21.652Z,46.21
2022-12-31T10:36:02.845Z,46.06
2022-12-31T10:38:29.815Z,46.18
2022-12-31T10:41:36.870Z,46.13
2022-12-31T10:44:25.269Z,46.10
2022-12-31T10:47:04.349Z,46.09
2022-12-31T10:49:55.915Z,46.56
2022-12-31T10:52:46.919Z,46.31
2022-12-31T10:55:42.216Z,46.44
2022-12-31T10:58:27.110Z,46.46
2022-12-31T11:01:08.559Z,46.45
2022-12-31T11:03:57.642Z,46.25
2022-12-31T11:06:49.092Z,46.63
2022-12-31T11:09:40.890Z,46.47
2022-12-31T11:12:19.844Z,46.45
2022-12-31T11:14:55.501Z,46.52
2022-12-31T11:17:40.934Z,46.55
2022-12-31T11:20:34.828Z,46.52
2022-12-31T11:23:11.549Z,46.41
2022-12-31T11:25:53.021Z,46.56
2022-12-31T11:28:35.124Z,47.14
2022-12-31T11:31:31.323Z,47.30
2022-12-31T11:34:12.308Z,47.00
2022-12-31T11:36:52.593Z,47.06
2022-12-31T11:39:54.145Z,46.97
2022-12-31T11:42:33.806Z,46.88
2022-12-31T11:45:22.790Z,46.94
2022-12-31T11:48:29.137Z,46.87
2022-12-31T11:51:14.938Z,46.88
2022-12-31T11:54:14.547Z,46.49
2022-12-31T11:57:02.769Z,46.63
2022-12-31T11:59:30.935Z,46.56
2022-12-31T12:02:40.400Z,46.60
2022-12-31T12:05:15.086Z,46.59
2022-12-31T12:07:41.928Z,46.69
2022-12-31T12:10:37.170Z,46.63
2022-12-31T12:13:17.694Z,46.61
2022-12-31T12:15:58.135Z,46.60
2022-12-31T12:18:40.295Z,46.60
2022-12-31T12:21:14.563Z,46.60
2022-12-31T12:24:03.407Z,46.86
2022-12-31T12:26:38.208Z,47.03
2022-12-31T12:29:14.580Z,47.73
2022-12-31T12:31:42.174Z,48.71
2022-12-31T12:34:27.671Z,49.48
2022-12-31T12:37:01.508Z,49.23
2022-12-31T12:39:31.153Z,49.15
2022-12-31T12:42:14.618Z,48.95
2022-12-31T12:44:41.575Z,48.78
2022-12-31T12:47:19.543Z,48.50
2022-12-31T12:49:58.836Z,48.45
2022-12-31T12:52:48.324Z,48.24
2022-12-31T12:55:26.271Z,48.16
2022-12-31T12:58:19.282Z,48.04
2022-12-31T13:01:23.807Z,47.95
2022-12-31T13:04:33.061Z,48.16
2022-12-31T13:07:06.806Z,48.13
2022-12-31T13:10:13.956Z,48.09
2022-12-31T13:13:23.386Z,47.90
2022-12-31T13:16:04.081Z,47.80
2022-12-31T13:19:03.030Z,47.70
2022-12-31T13:21:53.529Z,47.63
2022-12-31T13:24:58.175Z,47.63
2022-12-31T13:27:38.824Z,47.42
2022-12-31T13:30:23.569Z,47.21
2022-12-31T13:32:58.427Z,47.24
2022-12-31T13:35:41.984Z,47.39
2022-12-31T13:38:31.879Z,47.39
2022-12-31T13:41:06.421Z,47.32
2022-12-31T13:43:39.790Z,46.97
2022-12-31T13:46:21.228Z,46.93
2022-12-31T13:48:56.600Z,47.25
2022-12-31T13:51:26.748Z,47.81
2022-12-31T13:54:26.121Z,47.93
2022-12-31T13:57:01.863Z,48.43
2022-12-31T13:59:34.571Z,48.81
2022-12-31T14:02:16.730Z,49.05
2022-12-31T14:04:50.787Z,49.57
2022-12-31T14:07:30.737Z,50.05
2022-12-31T14:10:12.070Z,50.58
2022-12-31T14:13:07.509Z,50.58
2022-12-31T14:16:04.034Z,50.76
2022-12-31T14:19:00.576Z,51.17
2022-12-31T14:21:44.199Z,51.27
2022-12-31T14:24:35.319Z,51.23
2022-12-31T14:27:08.593Z,51.19
2022-12-31T14:29:54.245Z,51.27
2022-12-31T14:33:14.814Z,51.38
2022-12-31T14:36:01.040Z,51.09
2022-12-31T14:38:58.760Z,51.04
2022-12-31T14:41:54.897Z,50.93
2022-12-31T14:44:58.019Z,50.67
2022-12-31T14:47:45.810Z,50.44
2022-12-31T14:50:17.525Z,50.19
2022-12-31T14:53:06.765Z,49.60
2022-12-31T14:55:39.046Z,49.58
2022-12-31T14:58:28.649Z,49.67
2022-12-31T15:01:22.746Z,49.55
2022-12-31T15:03:57.738Z,49.71
2022-12-31T15:06:37.569Z,49.70
2022-12-31T15:09:13.424Z,49.66
2022-12-31T15:12:04.218Z,49.54
2022-12-31T15:14:52.181Z,49.55
2022-12-31T15:17:33.495Z,49.50
2022-12-31T15:20:19.408Z,49.50
2022-12-31T15:22:51.292Z,49.35
2022-12-31T15:25:48.044Z,49.25
2022-12-31T15:28:38.525Z,49.33
2022-12-31T15:31:17.402Z,49.20
2022-12-31T15:33:59.699Z,49.07
2022-12-31T15:36:32.105Z,48.77
2022-12-31T15:39:34.054Z,48.48
2022-12-31T15:42:43.406Z,48.75
2022-12-31T15:45:27.201Z,48.73
2022-12-31T15:48:00.328Z,48.39
2022-12-31T15:50:31.776Z,48.30
2022-12-31T15:53:10.769Z,48.23
2022-12-31T15:55:49.256Z,48.39
2022-12-31T15:58:24.183Z,48.41
2022-12-31T16:01:02.808Z,48.58
2022-12-31T16:03:31.868Z,48.79
2022-12-31T16:06:11.329Z,48.98
2022-12-31T16:08:38.791Z,49.43
2022-12-31T16:11:07.608Z,49.24
2022-12-31T16:13:41.994Z,48.78
2022-12-31T16:16:23.697Z,48.52
2022-12-31T16:18:53.812Z,48.82
2022-12-31T16:21:39.774Z,49.10
2022-12-31T16:24:32.736Z,49.40
2022-12-31T16:27:06.527Z,49.65
2022-12-31T16:29:37.715Z,50.14
2022-12-31T16:32:18.855Z,50.56
2022-12-31T16:34:46.371Z,51.03
2022-12-31T16:37:19.912Z,51.17
2022-12-31T16:40:01.947Z,52.03
2022-12-31T16:42:29.280Z,51.88
2022-12-31T16:44:57.727Z,51.78
2022-12-31T16:47:28.618Z,52.03
2022-12-31T16:50:20.918Z,52.19
2022-12-31T16:53:03.273Z,52.51
2022-12-31T16:55:38.750Z,52.70
2022-12-31T16:58:28.315Z,52.79
2022-12-31T17:01:28.417Z,52.40
2022-12-31T17:04:06.514Z,52.70
2022-12-31T17:06:34.089Z,52.47
2022-12-31T17:09:12.161Z,53.01
2022-12-31T17:11:58.717Z,52.95
2022-12-31T17:14:29.329Z,52.92
2022-12-31T17:17:08.384Z,53.53
2022-12-31T17:19:42.793Z,53.09
2022-12-31T17:22:32.963Z,53.18
2022-12-31T17:25:21.569Z,52.98
2022-12-31T17:28:03.060Z,53.03
2022-12-31T17:30:30.432Z,52.81
2022-12-31T17:33:27.686Z,52.75
2022-12-31T17:36:18.074Z,53.23
2022-12-31T17:38:48.115Z,53.36
2022-12-31T17:41:22.548Z,53.87
2022-12-31T17:43:59.463Z,54.18
2022-12-31T17:46:33.262Z,53.89
2022-12-31T17:49:03.745Z,53.73
2022-12-31T17:51:40.078Z,53.51
2022-12-31T17:54:18.496Z,53.43
2022-12-31T17:56:46.405Z,53.29
2022-12-31T17:59:27.630Z,53.25
2022-12-31T18:02:03.604Z,53.55
2022-12-31T18:04:30.994Z,53.36
2022-12-31T18:07:01.421Z,51.59
2022-12-31T18:09:28.954Z,51.73
2022-12-31T18:12:01.671Z,52.03
2022-12-31T18:14:32.268Z,51.92
2022-12-31T18:17:00.055Z,51.94
2022-12-31T18:20:02.913Z,52.20
2022-12-31T18:22:22.157Z,52.05
2022-12-31T18:24:55.365Z,52.06
2022-12-31T18:27:31.099Z,52.31
2022-12-31T18:30:04.952Z,52.22
2022-12-31T18:32:43.089Z,52.15
2022-12-31T18:38:16.604Z,52.52
2022-12-31T18:40:56.875Z,52.60
2022-12-31T18:43:24.665Z,52.35
2022-12-31T18:45:54.880Z,51.58
2022-12-31T18:48:25.366Z,52.32
2022-12-31T18:51:02.574Z,52.41
2022-12-31T18:53:29.627Z,52.29
2022-12-31T18:55:57.967Z,52.70
2022-12-31T18:58:25.351Z,52.19
2022-12-31T19:00:55.386Z,52.37
2022-12-31T19:03:27.311Z,51.94
2022-12-31T19:05:55.188Z,52.15
2022-12-31T19:08:23.786Z,51.97
2022-12-31T19:11:01.574Z,51.97
2022-12-31T19:13:28.511Z,51.84
2022-12-31T19:15:55.780Z,51.79
2022-12-31T19:18:22.805Z,51.86
2022-12-31T19:20:53.500Z,52.04
2022-12-31T19:23:21.364Z,51.78
2022-12-31T19:25:49.669Z,51.90
2022-12-31T19:28:19.473Z,51.76
2022-12-31T19:30:50.234Z,51.89
2022-12-31T19:33:18.270Z,51.81
2022-12-31T19:35:47.913Z,51.90
2022-12-31T19:38:22.623Z,51.89
2022-12-31T19:40:50.360Z,51.86
2022-12-31T19:43:19.836Z,52.88
2022-12-31T19:45:48.132Z,52.99
2022-12-31T19:48:21.135Z,53.08
2022-12-31T19:50:49.442Z,53.24
2022-12-31T19:53:27.887Z,53.51
2022-12-31T19:55:54.821Z,53.51
2022-12-31T19:58:26.663Z,53.41
2022-12-31T20:01:01.968Z,53.61
2022-12-31T20:03:34.575Z,53.46
2022-12-31T20:06:10.633Z,53.61
2022-12-31T20:08:38.688Z,53.42
2022-12-31T20:11:13.149Z,53.23
2022-12-31T20:13:42.179Z,53.32
2022-12-31T20:16:12.129Z,53.29
2022-12-31T20:18:42.877Z,53.27
2022-12-31T20:21:16.876Z,53.25
2022-12-31T20:23:50.920Z,53.27
2022-12-31T20:26:23.005Z,53.26
2022-12-31T20:28:50.065Z,53.25
2022-12-31T20:31:20.129Z,53.25
2022-12-31T20:33:49.749Z,53.24
2022-12-31T20:36:17.888Z,53.21
2022-12-31T20:38:45.302Z,53.24
2022-12-31T20:41:17.559Z,53.28
2022-12-31T20:43:46.382Z,53.29
2022-12-31T20:46:20.838Z,53.26
2022-12-31T20:48:49.776Z,53.32
2022-12-31T20:51:17.657Z,53.28
2022-12-31T20:53:56.391Z,53.17
2022-12-31T20:56:29.396Z,53.26
2022-12-31T20:59:01.267Z,52.65
2022-12-31T21:01:41.831Z,53.16
2022-12-31T21:04:18.603Z,52.91
2022-12-31T21:06:45.937Z,52.82
2022-12-31T21:09:12.692Z,52.59
2022-12-31T21:11:42.903Z,52.30
2022-12-31T21:14:10.799Z,51.91
2022-12-31T21:16:37.663Z,52.02
2022-12-31T21:19:04.550Z,51.73
2022-12-31T21:21:31.554Z,52.02
2022-12-31T21:24:04.931Z,52.04
2022-12-31T21:26:33.462Z,52.02
2022-12-31T21:29:09.848Z,51.98
2022-12-31T21:31:40.015Z,51.87
2022-12-31T21:34:13.464Z,51.83
2022-12-31T21:36:43.608Z,51.67
2022-12-31T21:39:10.534Z,51.52
2022-12-31T21:41:43.723Z,51.38
2022-12-31T21:44:17.291Z,51.29
2022-12-31T21:47:15.706Z,51.21
2022-12-31T21:49:34.920Z,51.15
2022-12-31T21:52:08.889Z,51.08
2022-12-31T21:54:40.316Z,51.05
2022-12-31T21:57:13.535Z,50.87
2022-12-31T21:59:46.431Z,50.73
2022-12-31T22:02:21.818Z,50.86
2022-12-31T22:05:03.013Z,50.78
2022-12-31T22:07:40.931Z,50.67
2022-12-31T22:10:11.223Z,50.61
2022-12-31T22:12:38.060Z,50.39
2022-12-31T22:15:15.937Z,50.47
2022-12-31T22:17:46.433Z,50.29
2022-12-31T22:20:27.220Z,50.25
2022-12-31T22:22:57.644Z,50.27
2022-12-31T22:25:24.648Z,50.10
2022-12-31T22:28:27.569Z,50.00
2022-12-31T22:30:44.393Z,49.87
2022-12-31T22:33:19.162Z,49.40
2022-12-31T22:36:04.721Z,49.25
2022-12-31T22:38:33.104Z,48.89
2022-12-31T22:41:11.791Z,48.86
2022-12-31T22:43:48.187Z,48.78
2022-12-31T22:46:21.675Z,48.70
2022-12-31T22:48:57.405Z,48.74
2022-12-31T22:51:56.021Z,48.89
2022-12-31T22:54:17.575Z,48.56
2022-12-31T22:56:44.499Z,48.58
2022-12-31T22:59:11.765Z,48.73
2022-12-31T23:01:50.064Z,48.53
2022-12-31T23:04:17.103Z,48.73
2022-12-31T23:06:47.446Z,48.47
2022-12-31T23:09:16.623Z,48.31
2022-12-31T23:11:49.520Z,48.36
2022-12-31T23:14:17.500Z,48.37
2022-12-31T23:16:46.855Z,48.22
2022-12-31T23:19:15.412Z,48.42
2022-12-31T23:21:45.408Z,48.33
2022-12-31T23:24:21.450Z,48.73
2022-12-31T23:26:51.588Z,48.48
2022-12-31T23:29:18.437Z,48.45
2022-12-31T23:31:45.328Z,48.41
2022-12-31T23:34:12.359Z,48.42
2022-12-31T23:36:39.157Z,48.53
2022-12-31T23:39:05.969Z,48.54
2022-12-31T23:41:32.895Z,48.51
2022-12-31T23:44:02.897Z,48.54
2022-12-31T23:46:34.094Z,48.55
2022-12-31T23:49:01.005Z,48.57
2022-12-31T23:51:34.254Z,48.55
2022-12-31T23:54:02.201Z,48.60
2022-12-31T23:56:31.611Z,48.53
2022-12-31T23:59:01.218Z,48.59
